Flight Track Log - Related Links

Times and Time Zones

All times are in EDT time to prevent confusion due to time zone crossing. See the AAL1129 flight status page for this flight to view local times or setup timezone preferences in your user account.

Time Position Orientation Groundspeed Altitude Reporting Facility
EDT Latitude Longitude Course Direction KTS MPH feet Rate Location/Type
Sun 05:13:25 PM 39.7000 -86.3167 252° West 168 193 1,700  Level Indianapolis TRACON
Sun 05:14:19 PM 39.6667 -86.3500 218° Southwest 188 216 3,100 1,552 Climbing Indianapolis TRACON
Sun 05:15:00 PM 39.6175 -86.6632 256° West  Level FlightAware Approximate
Sun 05:15:21 PM 39.6381 -86.4131 240° Southwest 218 251 4,700  Level Indianapolis Center
Sun 05:16:00 PM 39.5916 -86.7926 256° West  Level FlightAware Approximate
Sun 05:16:23 PM 39.6236 -86.5064 259° West 257 296 7,700  Level Indianapolis Center
Sun 05:17:00 PM 39.5644 -86.9212 237° Southwest  Level FlightAware Approximate
Sun 05:17:24 PM 39.6047 -86.6231 258° West 272 313 10,700  Level Indianapolis Center
Sun 05:18:00 PM 39.5265 -87.0444 252° West  Level FlightAware Approximate
Sun 05:18:26 PM 39.5844 -86.7367 257° West 311 358 12,300  Level Indianapolis Center
Sun 05:19:28 PM 39.5614 -86.8608 256° West 344 396 15,000 2,439 Climbing Indianapolis Center
Sun 05:20:29 PM 39.5372 -86.9878 256° West 358 412 17,300 2,293 Climbing Indianapolis Center
Sun 05:21:31 PM 39.5411 -87.1183 272° West 366 421 19,700 2,129 Climbing Indianapolis Center
Sun 05:22:33 PM 39.5486 -87.2536 274° West 377 434 21,700 1,561 Climbing Indianapolis Center
Sun 05:23:34 PM 39.5525 -87.3900 272° West 379 436 22,900 1,415 Climbing Indianapolis Center
Sun 05:24:36 PM 39.5567 -87.5336 272° West 395 455 24,600 1,742 Climbing Indianapolis Center
Sun 05:25:38 PM 39.5625 -87.7019 273° West 390 449 26,500 1,854 Climbing Indianapolis Center
Sun 05:26:39 PM 39.5642 -87.8483 271° West 406 467 28,400 1,756 Climbing Indianapolis Center
Sun 05:27:41 PM 39.5683 -87.9903 272° West 398 458 30,100 1,500 Climbing Indianapolis Center
Sun 05:28:43 PM 39.5719 -88.1297 272° West 390 449 31,500 1,275 Climbing Indianapolis Center
Sun 05:29:01 PM 39.5725 -88.1783 271° West 393 452 31,800 1,024 Climbing Kansas City Center
Sun 05:30:05 PM 39.5756 -88.3167 272° West 387 445 32,900 1,065 Climbing Kansas City Center
Sun 05:31:05 PM 39.5317 -88.4364 245° Southwest 376 433 34,000 532 Climbing Kansas City Center
Sun 05:32:09 PM 39.4606 -88.5439 229° Southwest 395 455 34,000  Level Kansas City Center
Sun 05:33:09 PM 39.3800 -88.6722 231° Southwest 400 460 34,000  Level Kansas City Center
Sun 05:34:12 PM 39.3044 -88.7828 229° Southwest 411 473 34,000  Level Kansas City Center
Sun 05:35:14 PM 39.2336 -88.8878 229° Southwest 397 457 34,000  Level Kansas City Center
Sun 05:36:17 PM 39.1661 -88.9939 231° Southwest 387 445 34,000  Level Kansas City Center
Sun 05:37:18 PM 39.0828 -89.1175 229° Southwest 393 452 34,000  Level Kansas City Center
Sun 05:38:19 PM 39.0083 -89.2308 230° Southwest 386 444 34,000  Level Kansas City Center
Sun 05:39:24 PM 38.9386 -89.3350 229° Southwest 385 443 34,000  Level Kansas City Center
Sun 05:40:24 PM 38.8636 -89.4478 230° Southwest 386 444 34,000  Level Kansas City Center
Sun 05:41:28 PM 38.8064 -89.5628 237° Southwest 384 442 34,000  Level Kansas City Center
Sun 05:42:29 PM 38.7550 -89.6656 237° Southwest 383 441 34,000  Level Kansas City Center
Sun 05:43:29 PM 38.6933 -89.7789 235° Southwest 385 443 34,000  Level Kansas City Center
Sun 05:44:33 PM 38.6203 -89.9156 236° Southwest 386 444 34,000  Level Kansas City Center
Sun 05:45:35 PM 38.5594 -90.0297 236° Southwest 387 445 34,000  Level Kansas City Center
Sun 05:46:35 PM 38.4972 -90.1433 235° Southwest 387 445 34,000  Level Kansas City Center
Sun 05:47:39 PM 38.4367 -90.2592 236° Southwest 388 447 34,000  Level Kansas City Center
Sun 05:48:40 PM 38.3742 -90.3736 235° Southwest 389 448 34,000  Level Kansas City Center
Sun 05:49:44 PM 38.3147 -90.4864 236° Southwest 384 442 34,000  Level Kansas City Center
Sun 05:50:44 PM 38.2533 -90.5992 235° Southwest 384 442 34,000  Level Kansas City Center
Sun 05:51:45 PM 38.1931 -90.7108 236° Southwest 383 441 34,000  Level Kansas City Center
Sun 05:52:49 PM 38.0861 -90.7994 213° Southwest 396 456 34,000  Level Kansas City Center
Sun 05:53:49 PM 37.9794 -90.8453 199° South 403 464 34,000  Level Kansas City Center
Sun 05:54:54 PM 37.8722 -90.8897 198° South 405 466 34,000  Level Kansas City Center
Sun 05:55:54 PM 37.7561 -90.9019 185° South 414 476 34,000  Level Kansas City Center
Sun 05:56:55 PM 37.6381 -90.9050 181° South 421 484 34,000  Level Kansas City Center
Sun 05:57:59 PM 37.5164 -90.9097 182° South 424 488 34,000  Level Kansas City Center
Sun 05:58:59 PM 37.3756 -90.9158 182° South 423 487 34,000  Level Kansas City Center
Sun 06:00:04 PM 37.2586 -90.9194 181° South 420 483 34,000  Level Kansas City Center
Sun 06:01:05 PM 37.1431 -90.9228 181° South 417 480 34,000  Level Kansas City Center
Sun 06:02:05 PM 37.0244 -90.9306 183° South 420 483 34,000  Level Kansas City Center
Sun 06:03:09 PM 36.9042 -90.9375 183° South 427 491 34,000  Level Kansas City Center
Sun 06:04:10 PM 36.7839 -90.9450 183° South 431 496 34,000  Level Kansas City Center
Sun 06:05:08 PM 36.6533 -90.9594 185° South 437 503 34,000  Level Memphis Center
Sun 06:06:08 PM 36.5467 -91.0181 204° Southwest 422 486 34,000  Level Memphis Center
Sun 06:07:08 PM 36.4422 -91.0844 207° Southwest 422 486 34,000  Level Memphis Center
Sun 06:08:08 PM 36.3375 -91.1478 206° Southwest 422 486 34,000  Level Memphis Center
Sun 06:09:08 PM 36.2328 -91.2139 207° Southwest 422 486 34,000  Level Memphis Center
Sun 06:10:08 PM 36.1344 -91.2769 207° Southwest 417 480 34,000  Level Memphis Center
Sun 06:11:08 PM 36.0275 -91.3425 206° Southwest 417 480 34,000  Level Memphis Center
Sun 06:12:08 PM 35.9331 -91.4133 211° Southwest 417 480 34,000  Level Memphis Center
Sun 06:13:08 PM 35.8528 -91.5275 229° Southwest 404 465 34,000  Level Memphis Center
Sun 06:14:08 PM 35.7747 -91.6286 226° Southwest 404 465 34,000  Level Memphis Center
Sun 06:15:08 PM 35.6986 -91.7322 228° Southwest 410 472 34,000  Level Memphis Center
Sun 06:16:08 PM 35.6203 -91.8358 227° Southwest 415 478 34,000  Level Memphis Center
Sun 06:17:08 PM 35.5439 -91.9417 228° Southwest 415 478 34,000  Level Memphis Center
Sun 06:18:08 PM 35.4633 -92.0419 225° Southwest 415 478 34,000  Level Memphis Center
Sun 06:19:08 PM 35.3869 -92.1422 227° Southwest 410 472 34,000  Level Memphis Center
Sun 06:20:08 PM 35.3061 -92.2475 227° Southwest 415 478 34,000  Level Memphis Center
Sun 06:21:08 PM 35.2250 -92.3525 227° Southwest 415 478 34,000  Level Memphis Center
Sun 06:22:08 PM 35.1483 -92.4547 227° Southwest 420 483 34,000 -700 Level Memphis Center
Sun 06:23:08 PM 35.0672 -92.5592 227° Southwest 420 483 32,600 -2,200 Descending Memphis Center
Sun 06:24:08 PM 34.9861 -92.6636 227° Southwest 425 489 29,600 -3,150 Descending Memphis Center
Sun 06:25:08 PM 34.9025 -92.7778 228° Southwest 437 503 26,300 -1,800 Descending Memphis Center
Sun 06:26:08 PM 34.8044 -92.8811 221° Southwest 449 517 26,000 -150 Descending Memphis Center
Sun 06:27:08 PM 34.7111 -92.9567 214° Southwest 456 525 26,000  Level Memphis Center
Sun 06:28:08 PM 34.6008 -93.0417 212° Southwest 462 532 26,000  Level Memphis Center
Sun 06:29:08 PM 34.4967 -93.1292 215° Southwest 468 539 26,000  Level Memphis Center
Sun 06:30:08 PM 34.3906 -93.2139 213° Southwest 468 539 26,000  Level Memphis Center
Sun 06:32:12 PM 34.2553 -93.4636 237° Southwest 460 529 26,000  Level Fort Worth Center
Sun 06:33:12 PM 34.2219 -93.6058 254° West 448 516 26,000  Level Fort Worth Center
Sun 06:34:12 PM 34.1886 -93.7428 254° West 438 504 26,000  Level Fort Worth Center
Sun 06:35:12 PM 34.1506 -93.8675 250° West 422 486 26,000  Level Fort Worth Center
Sun 06:36:12 PM 34.1164 -93.9917 252° West 400 460 26,000  Level Fort Worth Center
Sun 06:37:12 PM 34.0800 -94.1161 251° West 395 455 26,000  Level Fort Worth Center
Sun 06:38:12 PM 34.0436 -94.2378 250° West 390 449 26,000  Level Fort Worth Center
Sun 06:39:12 PM 34.0050 -94.3669 250° West 396 456 26,000  Level Fort Worth Center
Sun 06:40:12 PM 33.9683 -94.4958 251° West 402 463 26,000  Level Fort Worth Center
Sun 06:41:12 PM 33.9317 -94.6222 251° West 408 470 26,000  Level Fort Worth Center
Sun 06:42:12 PM 33.8925 -94.7486 250° West 408 470 26,000  Level Fort Worth Center
Sun 06:43:12 PM 33.8536 -94.8750 250° West 408 470 26,000  Level Fort Worth Center
Sun 06:44:12 PM 33.8164 -95.0033 251° West 408 470 26,000 -300 Level Fort Worth Center
Sun 06:45:12 PM 33.7769 -95.1294 249° West 408 470 25,400 -850 Descending Fort Worth Center
Sun 06:46:12 PM 33.7375 -95.2581 250° West 413 475 24,300 -700 Descending Fort Worth Center
Sun 06:47:12 PM 33.6958 -95.3811 248° West 413 475 24,000 -1,050 Descending Fort Worth Center
Sun 06:48:12 PM 33.6561 -95.5069 249° West 413 475 22,200 -1,800 Descending Fort Worth Center
Sun 06:49:12 PM 33.6161 -95.6250 248° West 407 468 20,400 -1,800 Descending Fort Worth Center
Sun 06:50:12 PM 33.5739 -95.7456 247° West 402 463 18,600 -1,950 Descending Fort Worth Center
Sun 06:51:12 PM 33.5336 -95.8783 250° West 392 451 16,500 -1,850 Descending Fort Worth Center
Sun 06:52:12 PM 33.4975 -95.9911 249° West 380 437 14,900 -1,750 Descending Fort Worth Center
Sun 06:53:12 PM 33.4592 -96.1039 248° West 370 426 13,000 -1,600 Descending Fort Worth Center
Sun 06:54:12 PM 33.4225 -96.2114 248° West 370 426 11,700 -1,000 Descending Fort Worth Center
Sun 06:55:12 PM 33.3881 -96.3164 249° West 344 396 11,000 -440 Descending Fort Worth Center
Sun 06:56:01 PM 33.3667 -96.3833 249° West 303 349 10,900 -783 Descending Dallas / Fort Worth TRACON
Sun 06:57:07 PM 33.3167 -96.4833 239° Southwest 296 341 9,500 -1,400 Descending Dallas / Fort Worth TRACON
Sun 06:58:01 PM 33.3000 -96.5667 257° West 288 331 8,100 -1,400 Descending Dallas / Fort Worth TRACON
Sun 06:59:07 PM 33.2667 -96.6667 248° West 274 315 6,700 -1,400 Descending Dallas / Fort Worth TRACON
Sun 07:00:01 PM 33.2333 -96.7333 239° Southwest 268 308 5,300 -816 Descending Dallas / Fort Worth TRACON
Sun 07:01:12 PM 33.2119 -96.8300 255° West 275 316 5,000 -550 Descending Fort Worth Center
Sun 07:02:12 PM 33.1872 -96.9094 250° West 255 293 4,100 -850 Descending Fort Worth Center
Sun 07:03:12 PM 33.1519 -96.9569 228° Southwest 217 250 3,300 -550 Descending Fort Worth Center
Sun 07:04:12 PM 33.0958 -96.9969 211° Southwest 212 244 3,000 -150 Descending Fort Worth Center
Sun 07:05:12 PM 33.0519 -97.0119 196° South 200 230 3,000  Level Fort Worth Center

Login

Don't have an account? Register now (free) for customized features, flight alerts, and more!